This is the latest recevied weather packets stored in our database for station/object KO4LFZ. If no packets are shown the sender has not sent any weather packets the latest 10 day(s).
| Time | Temp. | Humidity | Pressure | Rain* | Wind** | Luminosity | Snow |
|---|---|---|---|---|---|---|---|
| 1777723089 | 7.78° C | 91% | 1017 hPa | 0 mm | - | 53 W/m² | - |
| 1777722786 | 8.33° C | 94% | 1016.8 hPa | 0 mm | - | 46 W/m² | - |
| 1777722483 | 6.67° C | 96% | 1016.9 hPa | 0 mm | - | 32 W/m² | - |
| 1777722179 | 6.67° C | 96% | 1016.9 hPa | 0 mm | - | 32 W/m² | - |
| 1777721876 | 6.67° C | 97% | 1016.7 hPa | 0 mm | - | 29 W/m² | - |
| 1777721574 | 5.56° C | 96% | 1016.7 hPa | 0 mm | - | 24 W/m² | - |
| 1777721272 | 5.56° C | 97% | 1016.8 hPa | 0 mm | - | 19 W/m² | - |
| 1777720969 | 5.56° C | 97% | 1016.9 hPa | 0 mm | - | 13 W/m² | - |
| 1777720666 | 5.56° C | 97% | 1016.8 hPa | 0 mm | - | 9 W/m² | - |
| 1777720364 | 5.56° C | 97% | 1016.7 hPa | 0 mm | - | 6 W/m² | - |
| 1777720061 | 5.56° C | 96% | 1016.8 hPa | 0 mm | - | 4 W/m² | - |
| 1777719759 | 5.56° C | 96% | 1016.6 hPa | 0 mm | - | 1 W/m² | - |
| 1777719457 | 5.56° C | 97% | 1016.6 hPa | 0 mm | - | 0 W/m² | - |
| 1777719153 | 5.56° C | 97% | 1016.7 hPa | 0 mm | - | 0 W/m² | - |
| 1777718851 | 5.56° C | 97% | 1016.8 hPa | 0 mm | - | 0 W/m² | - |
| 1777718548 | 5.56° C | 97% | 1016.9 hPa | 0 mm | - | 0 W/m² | - |
| 1777718246 | 5.56° C | 97% | 1016.7 hPa | 0 mm | - | 0 W/m² | - |
| 1777717943 | 5.56° C | 97% | 1016.7 hPa | 0 mm | - | 0 W/m² | - |
| 1777717640 | 5.56° C | 96% | 1016.8 hPa | 0 mm | - | 0 W/m² | - |
| 1777717336 | 5.56° C | 96% | 1016.6 hPa | 0 mm | - | 0 W/m² | - |
| 1777717034 | 6.11° C | 96% | 1016.7 hPa | 0 mm | - | 0 W/m² | - |
| 1777716733 | 5.56° C | 96% | 1016.6 hPa | 0 mm | - | 0 W/m² | - |
| 1777716430 | 5.56° C | 96% | 1016.5 hPa | 0 mm | - | 0 W/m² | - |
| 1777716128 | 6.11° C | 95% | 1016.4 hPa | 0 mm | - | 0 W/m² | - |
| 1777715827 | 6.11° C | 96% | 1016.4 hPa | 0 mm | - | 0 W/m² | - |
* Rain latest hour (hover to see other rain measurements)
** Current wind speed in m/s (hover to see current wind gust speed)